Time;durP1;ratioP1;P1;durP2;ratioP2;P2;SDS_P1;SDS_P2;PMS_P1;PMS_P2;Temp;Humidity;BMP_temperature;BMP_pressure;BME280_temperature;BME280_humidity;BME280_pressure;Samples;Min_cycle;Max_cycle;Signal;HPM_P1;HPM_P2
2022/02/13 00:01:55;;;;;;;7.30;2.22;;;;;;;3.44;45.31;101576.81;4360711;32;32692;-85
2022/02/13 00:04:23;;;;;;;8.10;3.25;;;;;;;3.37;45.77;101564.50;4388166;32;34115;-84
2022/02/13 00:06:53;;;;;;;9.85;2.95;;;;;;;3.64;45.01;101564.88;4388444;32;34462;-85
2022/02/13 00:09:21;;;;;;;3.72;2.28;;;;;;;3.62;44.85;101561.38;4388343;32;32910;-84
2022/02/13 00:11:49;;;;;;;5.00;2.78;;;;;;;3.65;45.23;101565.75;4374038;32;34412;-84
2022/02/13 00:14:16;;;;;;;5.43;2.80;;;;;;;3.50;45.52;101563.81;4375638;32;33479;-85
2022/02/13 00:16:44;;;;;;;5.72;2.22;;;;;;;3.45;45.52;101560.28;4375051;32;32906;-84
2022/02/13 00:19:12;;;;;;;10.32;2.75;;;;;;;3.41;45.73;101558.47;4375116;32;32378;-84
2022/02/13 00:21:51;;;;;;;5.12;2.55;;;;;;;3.51;45.32;101553.44;4375123;32;33229;-84
2022/02/13 00:24:19;;;;;;;4.57;2.17;;;;;;;3.48;45.60;101535.09;4375337;32;33411;-84
2022/02/13 00:26:47;;;;;;;6.60;2.50;;;;;;;3.79;44.69;101545.91;4364912;32;33964;-84
2022/02/13 00:29:15;;;;;;;4.82;2.75;;;;;;;3.66;44.84;101546.66;4376016;32;33195;-84
2022/02/13 00:31:43;;;;;;;5.40;2.10;;;;;;;3.65;44.85;101550.09;4387189;32;33869;-83
2022/02/13 00:34:10;;;;;;;7.93;2.58;;;;;;;3.60;44.87;101547.41;4377164;32;33969;-84
2022/02/13 00:36:39;;;;;;;7.95;2.55;;;;;;;3.69;44.64;101550.16;4378816;32;34643;-84
2022/02/13 00:39:07;;;;;;;5.25;2.67;;;;;;;3.27;45.60;101543.50;4377718;32;34064;-84
2022/02/13 00:41:34;;;;;;;6.68;1.90;;;;;;;3.19;45.95;101545.16;4377831;32;33827;-84
2022/02/13 00:44:02;;;;;;;4.50;2.00;;;;;;;3.33;45.68;101546.22;4390844;32;33579;-84
2022/02/13 00:46:30;;;;;;;5.78;2.70;;;;;;;3.44;45.38;101545.47;4378074;32;33265;-84
2022/02/13 00:48:59;;;;;;;5.28;2.92;;;;;;;3.26;45.65;101541.75;4377687;32;32713;-84
2022/02/13 00:51:27;;;;;;;5.07;2.45;;;;;;;2.94;46.58;101537.78;4377419;32;34560;-84
2022/02/13 00:53:54;;;;;;;3.47;2.08;;;;;;;3.28;46.01;101534.84;4390966;32;34442;-84
2022/02/13 00:56:22;;;;;;;3.90;2.25;;;;;;;3.06;46.34;101545.81;4366032;32;33361;-84
2022/02/13 00:58:50;;;;;;;8.00;2.40;;;;;;;3.16;46.21;101539.88;4365885;32;34254;-84
2022/02/13 01:01:18;;;;;;;6.40;2.80;;;;;;;3.25;45.65;101544.34;4378142;32;33223;-84
2022/02/13 01:03:46;;;;;;;5.12;2.40;;;;;;;2.93;46.46;101546.47;4377103;32;34259;-84
2022/02/13 01:06:13;;;;;;;6.30;2.75;;;;;;;2.74;47.40;101545.31;4377874;32;34717;-84
2022/02/13 01:08:41;;;;;;;5.45;2.92;;;;;;;2.91;46.73;101541.25;4390810;32;32590;-84
2022/02/13 01:11:09;;;;;;;5.97;2.33;;;;;;;2.30;48.23;101535.88;4378550;32;34651;-83
2022/02/13 01:13:37;;;;;;;5.47;2.35;;;;;;;2.59;47.73;101543.31;4390658;32;32550;-83
2022/02/13 01:16:05;;;;;;;4.50;2.55;;;;;;;2.88;47.16;101535.97;4390688;32;33633;-83
2022/02/13 01:18:32;;;;;;;6.82;2.37;;;;;;;2.51;47.76;101537.97;4390573;32;33412;-84
2022/02/13 01:21:00;;;;;;;5.62;2.20;;;;;;;2.60;47.78;101536.38;4378274;32;34615;-84
2022/02/13 01:23:29;;;;;;;5.22;2.10;;;;;;;2.62;47.39;101532.09;4365588;32;33981;-83
2022/02/13 01:25:57;;;;;;;8.18;2.75;;;;;;;2.76;47.01;101534.06;4377882;32;33098;-85
2022/02/13 01:28:25;;;;;;;4.53;2.47;;;;;;;2.70;46.97;101528.72;4377774;32;33159;-85
2022/02/13 01:30:57;;;;;;;4.87;2.45;;;;;;;2.86;46.64;101527.25;4390481;32;34409;-85
2022/02/13 01:33:26;;;;;;;4.03;2.33;;;;;;;2.78;46.73;101521.91;4377647;32;33361;-85
2022/02/13 01:35:53;;;;;;;10.98;2.80;;;;;;;2.88;46.57;101516.81;4378020;32;34543;-85
2022/02/13 01:38:21;;;;;;;6.43;2.40;;;;;;;2.95;46.37;101523.91;4365063;32;32180;-85
2022/02/13 01:40:49;;;;;;;6.60;2.95;;;;;;;2.75;46.81;101511.44;4390316;32;33802;-86
2022/02/13 01:43:17;;;;;;;5.57;2.37;;;;;;;2.89;46.37;101510.75;4365005;32;33562;-86
2022/02/13 01:45:45;;;;;;;6.82;3.10;;;;;;;2.90;46.30;101499.50;4390262;32;33112;-86
2022/02/13 01:48:12;;;;;;;9.43;3.47;;;;;;;2.82;46.27;101507.19;4377959;32;31942;-86
2022/02/13 01:50:41;;;;;;;6.32;2.17;;;;;;;2.92;46.27;101497.75;4364920;32;32998;-86
2022/02/13 01:53:29;;;;;;;3.75;2.00;;;;;;;2.92;45.93;101497.75;4369902;32;34401;-85
2022/02/13 01:55:57;;;;;;;3.28;2.08;;;;;;;2.96;46.16;101499.56;4378103;32;33560;-83
2022/02/13 01:58:24;;;;;;;5.15;2.05;;;;;;;2.98;46.20;101497.84;4377743;32;32322;-83
2022/02/13 02:00:52;;;;;;;9.65;2.97;;;;;;;2.85;47.28;101493.28;4390698;32;33816;-83
2022/02/13 02:03:20;;;;;;;6.50;2.30;;;;;;;2.85;47.10;101490.69;4377952;32;33349;-83
2022/02/13 02:05:48;;;;;;;10.02;3.30;;;;;;;2.77;47.10;101496.69;4390337;32;32901;-83
2022/02/13 02:08:16;;;;;;;4.30;2.62;;;;;;;2.59;47.26;101492.91;4364971;32;33318;-84
2022/02/13 02:10:48;;;;;;;4.70;2.60;;;;;;;2.59;47.11;101485.97;4390354;32;33797;-83
2022/02/13 02:13:15;;;;;;;5.18;2.58;;;;;;;2.68;47.02;101487.84;4377412;32;32994;-83
2022/02/13 02:15:43;;;;;;;6.72;2.85;;;;;;;2.60;47.09;101485.09;4390353;32;34210;-83
2022/02/13 02:18:11;;;;;;;6.87;2.75;;;;;;;2.94;46.33;101481.25;4363404;32;32279;-83
2022/02/13 02:20:40;;;;;;;7.00;3.53;;;;;;;2.87;46.70;101473.34;4365223;32;34096;-83
2022/02/13 02:23:07;;;;;;;3.10;2.17;;;;;;;2.57;47.47;101479.84;4377840;32;33723;-83
2022/02/13 02:25:35;;;;;;;7.37;2.67;;;;;;;2.46;47.54;101473.56;4390171;32;33862;-84
2022/02/13 02:28:03;;;;;;;8.02;3.30;;;;;;;2.46;47.50;101473.56;4377735;32;32697;-83
2022/02/13 02:30:37;;;;;;;9.48;3.53;;;;;;;2.47;47.30;101463.19;4378041;32;34580;-83
2022/02/13 02:33:11;;;;;;;6.22;3.28;;;;;;;2.58;46.96;101463.34;4377636;32;34710;-84
2022/02/13 02:35:39;;;;;;;7.35;2.87;;;;;;;2.63;46.83;101461.69;4365002;32;32662;-83
2022/02/13 02:38:07;;;;;;;8.18;3.80;;;;;;;2.39;47.40;101463.91;4377719;32;33290;-84
2022/02/13 02:40:34;;;;;;;5.57;2.62;;;;;;;2.48;47.33;101464.94;4365224;32;34522;-84
2022/02/13 02:43:02;;;;;;;7.32;3.03;;;;;;;2.62;46.93;101454.72;4378078;32;34026;-84
2022/02/13 02:45:30;;;;;;;4.37;2.50;;;;;;;2.66;46.78;101453.91;4391879;32;32210;-84
2022/02/13 02:47:58;;;;;;;7.55;3.00;;;;;;;2.51;47.22;101448.44;4379005;32;33916;-83
2022/02/13 02:50:25;;;;;;;8.13;3.35;;;;;;;2.83;46.35;101455.03;4391184;32;33405;-83
2022/02/13 02:52:53;;;;;;;5.35;3.12;;;;;;;2.85;46.11;101444.63;4379378;32;33616;-84
2022/02/13 02:55:21;;;;;;;5.15;2.72;;;;;;;2.99;45.74;101455.22;4391454;32;34153;-83
2022/02/13 02:57:48;;;;;;;6.35;2.87;;;;;;;3.06;45.54;101441.41;4391724;32;32385;-83
2022/02/13 03:00:16;;;;;;;5.95;2.30;;;;;;;3.10;45.43;101448.44;4365737;32;33755;-84
2022/02/13 03:02:44;;;;;;;5.70;2.70;;;;;;;3.13;44.94;101444.97;4373197;32;33883;-84
2022/02/13 03:05:11;;;;;;;3.47;2.45;;;;;;;2.94;45.46;101446.47;4391410;32;34314;-84
2022/02/13 03:07:39;;;;;;;4.35;3.55;;;;;;;2.84;45.60;101445.47;4391248;32;32833;-84
2022/02/13 03:10:07;;;;;;;9.57;3.17;;;;;;;2.89;45.55;101441.19;4390989;32;34204;-84
2022/02/13 03:12:40;;;;;;;6.82;2.50;;;;;;;2.98;45.51;101440.44;4379163;32;34042;-84
2022/02/13 03:15:09;;;;;;;8.05;3.22;;;;;;;2.85;45.92;101448.94;4372400;32;32756;-84
2022/02/13 03:17:36;;;;;;;3.33;2.30;;;;;;;2.66;46.27;101438.28;4378827;32;32347;-84
2022/02/13 03:20:06;;;;;;;5.03;2.40;;;;;;;2.52;47.31;101438.06;4377448;32;32294;-84
2022/02/13 03:22:34;;;;;;;5.43;2.35;;;;;;;2.63;47.12;101439.94;4378810;32;33006;-84
2022/02/13 03:25:03;;;;;;;6.82;2.90;;;;;;;2.62;47.28;101441.69;4378453;32;33772;-84
2022/02/13 03:27:31;;;;;;;5.07;2.55;;;;;;;2.04;48.50;101445.94;4378840;32;32605;-83
2022/02/13 03:29:59;;;;;;;4.35;2.50;;;;;;;1.57;50.31;101445.97;4379034;32;34317;-83
2022/02/13 03:32:26;;;;;;;9.93;3.58;;;;;;;1.64;50.06;101442.63;4378607;32;33270;-83
2022/02/13 03:34:54;;;;;;;4.57;2.83;;;;;;;1.86;49.35;101441.31;4390499;32;33617;-84
2022/02/13 03:37:22;;;;;;;4.50;2.50;;;;;;;1.65;49.99;101436.56;4391100;32;32735;-84
2022/02/13 03:39:49;;;;;;;9.10;3.55;;;;;;;1.65;49.95;101431.34;4378648;32;33350;-84
2022/02/13 03:42:17;;;;;;;4.80;2.97;;;;;;;1.47;50.36;101442.31;4378408;32;33369;-84
2022/02/13 03:44:45;;;;;;;9.00;2.92;;;;;;;1.20;51.23;101437.41;4378390;32;33644;-83
2022/02/13 03:47:13;;;;;;;6.00;3.05;;;;;;;1.12;51.17;101438.97;4383538;32;33138;-83
2022/02/13 03:49:41;;;;;;;5.55;2.95;;;;;;;1.17;51.28;101434.75;4377847;32;33500;-84
2022/02/13 03:52:10;;;;;;;7.45;2.72;;;;;;;1.30;50.89;101432.41;4390982;32;32922;-83
2022/02/13 03:54:40;;;;;;;7.15;2.50;;;;;;;1.07;51.32;101438.00;4365897;32;33558;-83
2022/02/13 03:57:07;;;;;;;4.07;2.42;;;;;;;1.05;51.17;101431.91;4378419;32;33898;-85
2022/02/13 03:59:35;;;;;;;4.55;2.30;;;;;;;0.91;51.86;101443.75;4378898;32;33752;-83
2022/02/13 04:02:03;;;;;;;3.85;2.28;;;;;;;1.01;51.25;101435.28;4378405;32;33407;-83
2022/02/13 04:04:30;;;;;;;3.70;2.50;;;;;;;1.06;51.16;101431.06;4378066;32;33213;-84
2022/02/13 04:06:58;;;;;;;7.07;2.35;;;;;;;0.88;51.65;101434.13;4390580;32;32336;-84
2022/02/13 04:09:26;;;;;;;3.65;2.10;;;;;;;0.65;52.31;101436.22;4392464;32;34372;-83
2022/02/13 04:11:54;;;;;;;4.85;2.95;;;;;;;0.81;52.01;101429.66;4378667;32;33986;-84
2022/02/13 04:14:23;;;;;;;5.72;3.17;;;;;;;0.91;51.82;101430.72;4378905;32;33825;-83
2022/02/13 04:16:51;;;;;;;3.10;2.40;;;;;;;0.76;52.06;101420.88;4378674;32;33061;-84
2022/02/13 04:19:19;;;;;;;5.37;2.30;;;;;;;0.85;51.94;101421.06;4365710;32;32716;-84
2022/02/13 04:21:46;;;;;;;5.93;2.60;;;;;;;0.84;52.02;101415.81;4391132;32;33638;-84
2022/02/13 04:24:14;;;;;;;4.85;2.35;;;;;;;0.61;52.43;101411.00;4390890;32;33741;-84
2022/02/13 04:26:43;;;;;;;4.10;3.10;;;;;;;0.24;53.36;101417.06;4378655;32;32088;-83
2022/02/13 04:29:11;;;;;;;5.62;2.78;;;;;;;0.48;53.04;101411.56;4378037;32;32915;-83
2022/02/13 04:31:39;;;;;;;6.10;2.97;;;;;;;0.48;52.91;101416.78;4378724;32;32760;-83
2022/02/13 04:34:07;;;;;;;9.65;3.28;;;;;;;0.37;53.40;101410.44;4377036;32;34502;-83
2022/02/13 04:36:35;;;;;;;3.05;2.30;;;;;;;0.48;53.06;101411.56;4390888;32;33301;-82
2022/02/13 04:39:04;;;;;;;5.87;2.97;;;;;;;0.27;53.65;101411.06;4377933;32;33630;-83
2022/02/13 04:41:33;;;;;;;6.60;2.80;;;;;;;0.07;54.05;101401.06;4366634;32;34413;-83
2022/02/13 04:44:01;;;;;;;5.75;2.62;;;;;;;0.21;53.55;101402.28;4377987;32;33239;-83
2022/02/13 04:46:28;;;;;;;5.97;3.05;;;;;;;0.14;53.76;101410.78;4391207;32;33328;-83
2022/02/13 04:48:56;;;;;;;5.15;2.72;;;;;;;0.46;52.71;101402.84;4378664;32;34095;-83
2022/02/13 04:51:26;;;;;;;5.75;3.67;;;;;;;0.12;53.31;101402.06;4378988;32;34679;-83
2022/02/13 04:53:54;;;;;;;7.62;3.20;;;;;;;0.15;53.16;101398.66;4365057;32;33958;-83
2022/02/13 04:56:22;;;;;;;4.75;3.10;;;;;;;-0.05;54.11;101399.06;4377405;32;33789;-83
2022/02/13 04:58:50;;;;;;;5.25;2.87;;;;;;;-0.32;54.36;101399.22;4390984;32;33610;-83
2022/02/13 05:01:17;;;;;;;7.75;3.95;;;;;;;-0.13;54.02;101399.69;4365143;32;34418;-84
2022/02/13 05:03:45;;;;;;;8.07;3.37;;;;;;;-0.29;54.74;101399.28;4377449;32;32308;-84
2022/02/13 05:06:13;;;;;;;8.07;3.62;;;;;;;-0.42;55.37;101396.34;4378312;32;33381;-84
2022/02/13 05:08:40;;;;;;;11.57;3.70;;;;;;;-0.26;54.90;101395.91;4377726;32;33290;-84
2022/02/13 05:11:09;;;;;;;7.37;3.70;;;;;;;-0.56;55.62;101396.88;4377544;32;34488;-83
2022/02/13 05:13:37;;;;;;;8.05;3.50;;;;;;;-0.48;55.24;101390.97;4374598;32;33280;-82
2022/02/13 05:16:05;;;;;;;9.40;3.35;;;;;;;-0.47;54.91;101395.34;4388913;32;33094;-82
2022/02/13 05:18:34;;;;;;;6.85;3.03;;;;;;;-0.29;54.27;101394.09;4388396;32;35059;-82
2022/02/13 05:21:02;;;;;;;15.20;3.90;;;;;;;-0.26;54.12;101389.00;4389224;32;33687;-82
2022/02/13 05:23:29;;;;;;;8.13;3.65;;;;;;;-0.20;53.62;101388.25;4388101;32;33331;-82
2022/02/13 05:25:58;;;;;;;6.95;4.10;;;;;;;-0.64;54.92;101394.91;4387077;32;32043;-82
2022/02/13 05:28:26;;;;;;;9.55;3.75;;;;;;;-0.72;55.23;101396.37;4376096;32;32652;-83
2022/02/13 05:30:53;;;;;;;6.22;3.85;;;;;;;-0.68;55.21;101383.53;4378105;32;33993;-82
2022/02/13 05:33:21;;;;;;;7.62;4.15;;;;;;;-0.59;54.72;101382.91;4378212;32;33141;-83
2022/02/13 05:35:49;;;;;;;14.98;5.18;;;;;;;-0.68;55.03;101390.44;4373473;32;33482;-83
2022/02/13 05:38:17;;;;;;;7.25;3.37;;;;;;;-0.71;54.88;101382.56;4374877;32;33369;-82
2022/02/13 05:40:44;;;;;;;8.20;4.10;;;;;;;-0.46;54.40;101379.81;4382199;32;32154;-82
2022/02/13 05:43:12;;;;;;;6.80;3.83;;;;;;;-1.09;55.69;101390.19;4370076;32;33674;-82
2022/02/13 05:45:41;;;;;;;6.93;3.47;;;;;;;-0.81;55.54;101377.16;4367536;32;33760;-83
2022/02/13 05:48:11;;;;;;;6.70;3.37;;;;;;;-0.79;55.28;101375.47;4371122;32;33895;-82
2022/02/13 05:50:41;;;;;;;6.68;3.67;;;;;;;-0.69;54.98;101375.72;4373276;32;33560;-82
2022/02/13 05:53:09;;;;;;;8.75;3.72;;;;;;;-0.95;55.76;101386.28;4370611;32;33971;-83
2022/02/13 05:55:36;;;;;;;6.57;3.58;;;;;;;-0.79;55.44;101382.37;4370541;32;33110;-83
2022/02/13 05:58:04;;;;;;;6.18;2.92;;;;;;;-0.96;56.17;101381.03;4383501;32;33844;-82
2022/02/13 06:00:32;;;;;;;7.57;3.53;;;;;;;-0.78;55.66;101386.72;4367515;32;34027;-82
2022/02/13 06:03:00;;;;;;;6.03;3.37;;;;;;;-0.90;55.65;101382.09;4359902;32;31527;-82
2022/02/13 06:05:28;;;;;;;4.07;3.10;;;;;;;-0.87;55.30;101387.34;4373380;32;33671;-83
2022/02/13 06:07:55;;;;;;;6.62;3.97;;;;;;;-0.85;55.43;101384.81;4375070;32;33060;-82
2022/02/13 06:10:23;;;;;;;8.73;5.18;;;;;;;-0.88;55.39;101380.41;4375796;32;32189;-82
2022/02/13 06:12:51;;;;;;;8.50;5.15;;;;;;;-0.79;55.24;101384.97;4382925;32;34413;-82
2022/02/13 06:15:18;;;;;;;7.70;4.32;;;;;;;-0.85;55.98;101392.59;4384404;32;33915;-82
2022/02/13 06:17:46;;;;;;;8.70;3.67;;;;;;;-0.77;55.43;101380.69;4377385;32;34543;-82
2022/02/13 06:20:14;;;;;;;7.78;4.03;;;;;;;-0.41;53.95;101388.59;4375188;32;33120;-82
2022/02/13 06:22:42;;;;;;;9.77;4.15;;;;;;;-0.96;56.13;101389.69;4373908;32;34681;-82
2022/02/13 06:25:10;;;;;;;7.10;3.97;;;;;;;-0.87;55.82;101389.94;4387774;32;31893;-83
2022/02/13 06:27:38;;;;;;;11.02;4.18;;;;;;;-0.75;55.41;101391.12;4371793;32;32069;-82
2022/02/13 06:30:06;;;;;;;6.32;3.60;;;;;;;-0.93;55.56;101392.38;4372884;32;34727;-82
2022/02/13 06:32:34;;;;;;;10.25;3.20;;;;;;;-0.64;54.45;101392.31;4375651;32;32496;-82
2022/02/13 06:35:02;;;;;;;7.95;4.10;;;;;;;-0.75;55.01;101398.91;4386047;32;31566;-83
2022/02/13 06:37:31;;;;;;;9.73;4.40;;;;;;;-1.09;56.14;101401.44;4386394;32;33788;-82
2022/02/13 06:39:59;;;;;;;8.35;4.10;;;;;;;-0.93;56.07;101397.56;4374804;32;33260;-83
2022/02/13 06:42:27;;;;;;;9.98;4.37;;;;;;;-0.97;55.89;101400.00;4370320;32;34646;-83
2022/02/13 06:44:54;;;;;;;8.60;5.20;;;;;;;-1.00;56.16;101398.19;4382839;32;33417;-83
2022/02/13 06:47:22;;;;;;;10.15;4.93;;;;;;;-1.00;56.61;101405.09;4374344;32;33368;-83
2022/02/13 06:49:50;;;;;;;9.85;5.25;;;;;;;-0.92;56.90;101394.13;4361731;32;32782;-83
2022/02/13 06:52:18;;;;;;;12.52;6.18;;;;;;;-0.60;56.21;101394.16;4367801;32;34296;-82
2022/02/13 06:54:46;;;;;;;11.98;5.50;;;;;;;-0.38;55.92;101387.78;4385823;32;33111;-83
2022/02/13 06:57:13;;;;;;;11.95;6.35;;;;;;;-0.49;56.04;101387.50;4377182;32;32517;-83
2022/02/13 06:59:44;;;;;;;12.43;6.53;;;;;;;-0.63;56.80;101394.06;4370105;32;33971;-83
2022/02/13 07:02:12;;;;;;;15.38;7.40;;;;;;;-0.48;56.90;101397.06;4353702;32;33530;-85
2022/02/13 07:04:40;;;;;;;15.98;8.25;;;;;;;-0.34;56.86;101385.31;4386192;32;33175;-85
2022/02/13 07:07:10;;;;;;;13.15;7.45;;;;;;;-0.54;57.14;101386.50;4376195;32;33954;-84
2022/02/13 07:09:38;;;;;;;18.00;7.40;;;;;;;-0.02;56.44;101385.25;4380269;32;32902;-85
2022/02/13 07:12:12;;;;;;;;;;;;;;;-0.12;56.41;101378.09;4368939;32;32408;-84
2022/02/13 07:14:41;;;;;;;11.65;5.85;;;;;;;0.07;56.33;101382.87;4353133;32;32138;-85
2022/02/13 07:17:09;;;;;;;12.88;5.07;;;;;;;0.17;55.10;101384.84;4374502;32;33515;-84
2022/02/13 07:19:37;;;;;;;8.00;4.35;;;;;;;0.55;53.80;101365.81;4373791;32;34660;-84
2022/02/13 07:22:06;;;;;;;9.10;4.10;;;;;;;0.50;52.63;101365.69;4376053;32;32666;-84
2022/02/13 07:24:37;;;;;;;5.37;2.80;;;;;;;0.88;51.51;101366.53;4364827;32;34018;-84
2022/02/13 07:27:05;;;;;;;;;;;;;;;1.23;49.80;101358.53;4370184;32;32351;-84
2022/02/13 07:29:33;;;;;;;5.15;2.58;;;;;;;1.19;49.88;101361.94;4373920;32;33390;-84
2022/02/13 07:32:01;;;;;;;5.65;2.60;;;;;;;1.55;49.17;101366.94;4375555;32;33461;-85
2022/02/13 07:34:29;;;;;;;5.53;2.90;;;;;;;1.68;48.78;101363.72;4372918;32;33554;-84
2022/02/13 07:37:01;;;;;;;8.27;3.10;;;;;;;1.60;48.78;101365.28;4376610;32;32523;-84
2022/02/13 07:39:35;;;;;;;6.22;2.50;;;;;;;2.04;47.54;101353.03;4384157;32;33140;-83
2022/02/13 07:42:05;;;;;;;4.82;2.55;;;;;;;2.35;46.87;101357.84;4370864;32;32007;-84
2022/02/13 07:44:33;;;;;;;3.33;2.10;;;;;;;2.47;46.28;101360.59;4378295;32;32175;-83
2022/02/13 07:47:01;;;;;;;6.78;2.75;;;;;;;2.34;45.75;101356.09;4374272;32;32827;-83
2022/02/13 07:49:29;;;;;;;4.40;2.45;;;;;;;2.57;45.60;101354.69;4378117;32;33074;-83
2022/02/13 07:51:57;;;;;;;7.87;2.53;;;;;;;2.50;45.06;101355.44;4378728;32;33331;-83
2022/02/13 07:54:25;;;;;;;5.30;2.50;;;;;;;2.53;45.33;101348.53;4374622;32;30367;-83
2022/02/13 07:56:55;;;;;;;6.07;2.90;;;;;;;2.52;46.24;101349.41;4372918;32;32829;-84
2022/02/13 07:59:23;;;;;;;5.43;2.87;;;;;;;2.79;45.29;101341.06;4371784;32;33131;-83
2022/02/13 08:01:51;;;;;;;5.72;2.80;;;;;;;3.02;44.04;101337.84;4373194;32;32218;-83
2022/02/13 08:04:19;;;;;;;9.50;2.47;;;;;;;2.68;44.88;101336.56;4385174;32;33809;-84
2022/02/13 08:06:47;;;;;;;6.62;3.05;;;;;;;3.08;44.28;101340.53;4374252;32;33436;-84
2022/02/13 08:09:15;;;;;;;5.65;2.40;;;;;;;3.42;44.38;101333.06;4382595;32;32968;-84
2022/02/13 08:11:43;;;;;;;11.05;2.83;;;;;;;3.37;43.87;101332.13;4374283;32;32738;-84
2022/02/13 08:14:11;;;;;;;5.93;2.67;;;;;;;3.41;43.15;101331.31;4372274;32;33253;-84
2022/02/13 08:16:39;;;;;;;9.68;2.75;;;;;;;3.83;41.22;101331.69;4386032;32;33163;-83
2022/02/13 08:19:07;;;;;;;4.20;2.17;;;;;;;3.56;42.20;101334.97;4374483;32;33123;-83
2022/02/13 08:21:35;;;;;;;8.80;2.10;;;;;;;3.82;42.88;101329.94;4372692;32;33461;-84
2022/02/13 08:24:03;;;;;;;6.60;2.65;;;;;;;3.38;42.21;101332.16;4386898;32;33494;-84
2022/02/13 08:26:31;;;;;;;5.55;2.30;;;;;;;3.71;41.93;101326.38;4376574;32;34536;-84
2022/02/13 08:29:00;;;;;;;4.22;2.65;;;;;;;3.90;42.23;101319.56;4364316;32;33925;-84
2022/02/13 08:31:28;;;;;;;4.87;2.00;;;;;;;4.26;41.74;101321.56;4375071;32;32616;-84
2022/02/13 08:33:56;;;;;;;3.35;2.33;;;;;;;4.52;39.20;101313.00;4370293;32;33111;-83
2022/02/13 08:36:24;;;;;;;3.12;1.77;;;;;;;3.89;41.16;101319.53;4373508;32;34313;-83
2022/02/13 08:38:52;;;;;;;6.82;2.40;;;;;;;4.17;40.11;101320.63;4374742;32;32394;-83
2022/02/13 08:41:19;;;;;;;3.10;2.25;;;;;;;3.92;40.24;101319.59;4389151;32;34028;-84
2022/02/13 08:43:49;;;;;;;8.60;2.35;;;;;;;3.52;40.60;101308.81;4374845;32;33457;-84
2022/02/13 08:46:17;;;;;;;4.40;2.03;;;;;;;4.31;40.38;101296.31;4375799;32;33073;-84
2022/02/13 08:48:45;;;;;;;4.87;1.87;;;;;;;4.48;39.81;101311.25;4362145;32;31204;-84
2022/02/13 08:51:13;;;;;;;4.35;2.00;;;;;;;4.73;39.13;101300.00;4384156;32;32935;-83
2022/02/13 08:53:40;;;;;;;3.80;1.95;;;;;;;4.46;39.39;101299.88;4384012;32;33799;-83
2022/02/13 08:56:08;;;;;;;7.15;2.53;;;;;;;4.37;39.67;101304.22;4374810;32;34311;-84
2022/02/13 08:58:36;;;;;;;7.65;2.97;;;;;;;4.47;39.81;101299.03;4387352;32;34023;-84
2022/02/13 09:01:03;;;;;;;5.43;3.55;;;;;;;4.58;39.44;101294.72;4387089;32;32797;-84
2022/02/13 09:03:33;;;;;;;3.87;2.58;;;;;;;4.66;42.21;101287.78;4373643;32;32003;-84
2022/02/13 09:06:00;;;;;;;5.43;2.28;;;;;;;5.28;38.58;101294.09;4388817;32;32838;-84
2022/02/13 09:08:28;;;;;;;5.47;3.00;;;;;;;5.55;38.10;101287.97;4385153;32;33238;-84
2022/02/13 09:10:56;;;;;;;4.60;2.97;;;;;;;4.80;38.58;101291.34;4374925;32;32795;-84
2022/02/13 09:13:23;;;;;;;7.68;2.92;;;;;;;4.81;38.72;101289.59;4360507;32;32609;-84
2022/02/13 09:15:51;;;;;;;4.80;2.97;;;;;;;4.80;39.13;101286.09;4376281;32;33191;-84
2022/02/13 09:18:19;;;;;;;6.22;2.95;;;;;;;5.06;40.43;101285.28;4365981;32;32982;-84
2022/02/13 09:20:46;;;;;;;5.35;2.65;;;;;;;5.18;39.13;101290.56;4362253;32;32743;-84
2022/02/13 09:23:21;;;;;;;6.65;3.05;;;;;;;5.45;37.79;101283.59;4387189;32;32819;-84
2022/02/13 09:25:50;;;;;;;5.90;3.20;;;;;;;5.00;38.65;101285.28;4388492;32;33333;-85
2022/02/13 09:28:19;;;;;;;8.57;3.15;;;;;;;5.52;38.47;101280.13;4371612;32;33358;-84
2022/02/13 09:30:49;;;;;;;9.85;3.72;;;;;;;5.45;38.80;101271.37;4372608;32;34289;-84
2022/02/13 09:33:23;;;;;;;4.78;2.97;;;;;;;5.71;38.26;101271.41;4379731;32;34345;-84
2022/02/13 09:35:52;;;;;;;4.70;3.50;;;;;;;5.87;38.13;101269.62;4363526;32;33515;-84
2022/02/13 09:38:20;;;;;;;5.68;3.55;;;;;;;5.64;38.58;101262.66;4374104;32;33586;-84
2022/02/13 09:40:48;;;;;;;6.65;3.65;;;;;;;5.74;38.14;101266.12;4375083;32;33312;-84
2022/02/13 09:43:17;;;;;;;8.90;3.30;;;;;;;6.02;37.79;101255.66;4362021;32;32686;-84
2022/02/13 09:45:45;;;;;;;10.75;3.97;;;;;;;6.16;38.01;101264.37;4369471;32;32706;-83
2022/02/13 09:48:21;;;;;;;6.15;3.15;;;;;;;6.23;37.33;101255.62;4370541;32;34322;-84
2022/02/13 09:50:49;;;;;;;6.25;3.05;;;;;;;5.98;38.07;101253.91;4370254;32;34584;-84
2022/02/13 09:53:19;;;;;;;8.02;3.97;;;;;;;6.11;37.91;101255.66;4373669;32;32534;-86
2022/02/13 09:55:47;;;;;;;7.43;4.07;;;;;;;6.03;38.44;101249.53;4362245;32;32844;-83
2022/02/13 09:58:15;;;;;;;6.25;3.70;;;;;;;6.36;38.42;101252.09;4372241;32;33961;-84
2022/02/13 10:01:00;;;;;;;9.63;4.20;;;;;;;6.35;38.35;101247.72;4373747;32;33939;-83
2022/02/13 10:03:33;;;;;;;9.73;5.20;;;;;;;6.69;38.60;101239.69;4372606;32;33152;-84
2022/02/13 10:06:21;;;;;;;10.20;4.80;;;;;;;6.98;39.17;101228.16;4362134;32;32958;-85
2022/02/13 10:08:54;;;;;;;10.77;4.90;;;;;;;7.72;38.99;101231.13;4379634;32;33632;-84
2022/02/13 10:11:36;;;;;;;9.50;4.60;;;;;;;7.82;39.31;101212.59;4374706;32;32927;-84
2022/02/13 10:14:12;;;;;;;11.00;5.15;;;;;;;8.01;37.35;101208.03;4386347;32;32363;-84
2022/02/13 10:17:51;;;;;;;;;;;;;;;;;;;;;
2022/02/13 10:21:56;;;;;;;6.40;5.00;;;;;;;8.26;37.68;101198.12;4371323;32;34373;-84
2022/02/13 10:25:15;;;;;;;9.43;5.18;;;;;;;8.22;38.91;101185.87;4279813;33;33397;-84
2022/02/13 10:27:47;;;;;;;10.48;4.90;;;;;;;8.69;39.69;101193.19;4328899;33;33672;-84
2022/02/13 10:30:38;;;;;;;10.82;5.60;;;;;;;8.62;39.51;101185.38;4369888;32;33592;-84
2022/02/13 10:33:26;;;;;;;15.45;6.68;;;;;;;9.17;38.25;101174.91;4375192;32;34213;-84
2022/02/13 10:36:08;;;;;;;13.90;6.18;;;;;;;8.94;39.18;101180.53;4366021;32;33484;-84
2022/02/13 10:38:41;;;;;;;9.50;5.20;;;;;;;9.16;38.04;101174.94;4351873;32;32589;-84
2022/02/13 10:41:28;;;;;;;11.40;6.03;;;;;;;9.71;37.88;101163.44;4363025;32;33541;-84
2022/02/13 10:44:06;;;;;;;11.90;6.70;;;;;;;9.44;38.70;101162.16;4363040;32;33572;-84
2022/02/13 10:46:39;;;;;;;10.95;6.37;;;;;;;10.00;38.17;101153.19;4351003;32;32671;-84
2022/02/13 10:49:13;;;;;;;9.27;4.75;;;;;;;9.88;36.62;101155.22;4374595;32;33159;-84
2022/02/13 10:51:44;;;;;;;9.95;5.50;;;;;;;9.32;37.54;101152.72;4350319;32;32481;-84
2022/02/13 10:54:30;;;;;;;9.52;5.90;;;;;;;9.21;38.56;101150.25;4365441;32;34417;-84
2022/02/13 10:57:28;;;;;;;10.38;6.12;;;;;;;9.41;38.96;101139.38;4361666;32;34155;-84
2022/02/13 11:00:47;;;;;;;8.00;5.40;;;;;;;8.96;40.09;101136.59;4362775;32;33124;-84
2022/02/13 11:03:18;;;;;;;11.38;5.05;;;;;;;9.22;39.44;101124.78;4364977;32;34563;-84
2022/02/13 11:06:21;;;;;;;10.73;5.47;;;;;;;9.21;39.53;101125.69;4375707;32;32859;-85
2022/02/13 11:08:50;;;;;;;9.50;5.78;;;;;;;9.24;39.45;101131.75;4365221;32;32822;-84
2022/02/13 11:11:40;;;;;;;10.63;6.30;;;;;;;9.58;39.16;101128.50;4355209;32;33133;-84
2022/02/13 11:14:07;;;;;;;9.85;5.55;;;;;;;10.07;39.01;101116.16;4351891;32;32801;-84
2022/02/13 11:16:37;;;;;;;10.52;5.25;;;;;;;9.45;38.78;101112.06;4364613;32;32263;-84
2022/02/13 11:19:10;;;;;;;11.82;6.10;;;;;;;9.96;38.51;101117.22;4352103;32;32946;-84
2022/02/13 11:21:42;;;;;;;12.25;6.28;;;;;;;9.84;39.94;101104.28;4363337;32;33447;-84
2022/02/13 11:24:29;;;;;;;11.90;6.18;;;;;;;9.98;38.76;101106.66;4364934;32;32779;-84
2022/02/13 11:27:01;;;;;;;9.30;5.47;;;;;;;10.01;38.00;101096.00;4354216;32;33391;-84
2022/02/13 11:29:51;;;;;;;8.88;5.65;;;;;;;10.28;37.43;101089.31;4364657;32;33602;-84
2022/02/13 11:32:48;;;;;;;9.70;5.20;;;;;;;10.24;37.37;101077.09;4368343;32;33080;-85
2022/02/13 11:35:17;;;;;;;10.05;5.53;;;;;;;10.19;37.92;101084.19;4362559;32;32291;-84
2022/02/13 11:37:50;;;;;;;11.63;6.43;;;;;;;10.08;37.84;101075.66;4389212;32;33022;-84
2022/02/13 11:40:39;;;;;;;12.57;6.43;;;;;;;10.33;37.59;101071.59;4376705;32;35308;-84
2022/02/13 11:43:07;;;;;;;12.48;4.95;;;;;;;10.21;38.68;101066.59;4377134;32;33260;-84
2022/02/13 11:45:46;;;;;;;11.00;6.18;;;;;;;10.61;37.94;101060.41;4376488;32;32804;-84
2022/02/13 11:48:32;;;;;;;9.18;5.10;;;;;;;10.49;38.41;101065.09;4374880;32;33591;-84